createdAt,value
2022-08-07T00:02:35.390Z,102831.34
2022-08-07T00:04:09.674Z,102837.25
2022-08-07T00:06:51.186Z,102832.78
2022-08-07T00:09:22.571Z,102825.81
2022-08-07T00:11:55.572Z,102821.94
2022-08-07T00:14:31.221Z,102820.81
2022-08-07T00:17:01.899Z,102831.44
2022-08-07T00:19:59.575Z,102826.22
2022-08-07T00:22:24.399Z,102823.03
2022-08-07T00:25:06.915Z,102822.09
2022-08-07T00:27:52.609Z,102818.84
2022-08-07T00:30:27.331Z,102815.53
2022-08-07T00:32:57.170Z,102820.91
2022-08-07T00:35:26.461Z,102815.06
2022-08-07T00:37:55.320Z,102812.06
2022-08-07T00:40:40.192Z,102815.06
2022-08-07T00:43:14.035Z,102813.97
2022-08-07T00:46:02.307Z,102815.69
2022-08-07T00:48:32.615Z,102810.28
2022-08-07T00:51:02.647Z,102810.63
2022-08-07T00:53:38.589Z,102806.38
2022-08-07T00:56:15.431Z,102818.28
2022-08-07T00:58:47.074Z,102809.91
2022-08-07T01:01:21.230Z,102805.34
2022-08-07T01:03:56.343Z,102805.97
2022-08-07T01:06:29.587Z,102798.66
2022-08-07T01:09:01.044Z,102798.47
2022-08-07T01:12:23.370Z,102798.13
2022-08-07T01:14:21.375Z,102804.03
2022-08-07T01:16:59.218Z,102802.22
2022-08-07T01:19:32.506Z,102809.19
2022-08-07T01:22:03.627Z,102805.50
2022-08-07T01:24:38.009Z,102808.16
2022-08-07T01:27:06.512Z,102808.22
2022-08-07T01:29:48.243Z,102811.34
2022-08-07T01:32:19.011Z,102812.00
2022-08-07T01:34:51.830Z,102806.25
2022-08-07T01:37:21.866Z,102804.31
2022-08-07T01:39:50.674Z,102800.03
2022-08-07T01:42:38.311Z,102803.59
2022-08-07T01:45:09.783Z,102794.56
2022-08-07T01:48:19.359Z,102803.06
2022-08-07T01:50:28.996Z,102779.38
2022-08-07T01:53:08.803Z,102789.06
2022-08-07T01:55:45.709Z,102787.75
2022-08-07T01:58:29.369Z,102779.97
2022-08-07T02:01:10.272Z,102784.97
2022-08-07T02:04:08.632Z,102793.34
2022-08-07T02:06:39.214Z,102779.53
2022-08-07T02:09:51.617Z,102788.72
2022-08-07T02:12:17.644Z,102786.34
2022-08-07T02:14:51.146Z,102778.94
2022-08-07T02:17:27.515Z,102783.97
2022-08-07T02:20:06.814Z,102787.69
2022-08-07T02:22:43.677Z,102788.88
2022-08-07T02:25:17.313Z,102786.03
2022-08-07T02:27:52.143Z,102780.66
2022-08-07T02:30:21.856Z,102775.59
2022-08-07T02:33:01.009Z,102769.47
2022-08-07T02:36:29.027Z,102780.44
2022-08-07T02:38:32.410Z,102782.94
2022-08-07T02:41:04.305Z,102777.91
2022-08-07T02:43:34.479Z,102774.72
2022-08-07T02:46:05.529Z,102773.31
2022-08-07T02:48:34.465Z,102771.75
2022-08-07T02:51:29.241Z,102777.47
2022-08-07T02:54:01.076Z,102771.22
2022-08-07T02:56:33.718Z,102774.38
2022-08-07T02:59:06.883Z,102776.66
2022-08-07T03:01:40.140Z,102775.78
2022-08-07T03:04:13.022Z,102769.91
2022-08-07T03:06:45.738Z,102770.09
2022-08-07T03:09:43.152Z,102770.72
2022-08-07T03:12:14.226Z,102772.53
2022-08-07T03:14:52.907Z,102770.91
2022-08-07T03:17:25.810Z,102767.38
2022-08-07T03:19:55.625Z,102765.41
2022-08-07T03:22:30.313Z,102760.75
2022-08-07T03:24:59.874Z,102761.28
2022-08-07T03:27:58.846Z,102764.13
2022-08-07T03:30:19.254Z,102756.72
2022-08-07T03:32:58.678Z,102757.69
2022-08-07T03:35:43.395Z,102759.72
2022-08-07T03:38:14.461Z,102763.28
2022-08-07T03:40:44.234Z,102762.81
2022-08-07T03:43:15.423Z,102763.44
2022-08-07T03:45:47.428Z,102763.63
2022-08-07T03:48:17.666Z,102757.59
2022-08-07T03:50:55.948Z,102755.16
2022-08-07T03:54:00.585Z,102764.56
2022-08-07T03:56:32.571Z,102760.75
2022-08-07T03:59:08.599Z,102760.38
2022-08-07T04:01:45.472Z,102760.13
2022-08-07T04:04:17.876Z,102763.28
2022-08-07T04:06:50.845Z,102757.16
2022-08-07T04:09:23.119Z,102764.31
2022-08-07T04:12:24.514Z,102758.81
2022-08-07T04:14:47.555Z,102748.63
2022-08-07T04:17:21.579Z,102748.50
2022-08-07T04:19:53.993Z,102751.19
2022-08-07T04:22:27.333Z,102749.72
2022-08-07T04:24:58.172Z,102757.41
2022-08-07T04:27:28.215Z,102766.06
2022-08-07T04:30:01.405Z,102759.53
2022-08-07T04:32:34.558Z,102768.06
2022-08-07T04:35:05.404Z,102765.03
2022-08-07T04:38:00.823Z,102756.91
2022-08-07T04:40:29.773Z,102770.59
2022-08-07T04:43:01.345Z,102768.78
2022-08-07T04:45:52.108Z,102760.22
2022-08-07T04:48:39.413Z,102768.84
2022-08-07T04:51:27.610Z,102770.44
2022-08-07T04:54:06.303Z,102776.09
2022-08-07T04:58:11.765Z,102777.13
2022-08-07T05:00:12.025Z,102779.00
2022-08-07T05:02:43.419Z,102776.25
2022-08-07T05:05:53.930Z,102778.66
2022-08-07T05:08:59.023Z,102777.59
2022-08-07T05:11:24.486Z,102779.16
2022-08-07T05:14:52.441Z,102768.25
2022-08-07T05:16:53.582Z,102760.94
2022-08-07T05:19:32.888Z,102773.00
2022-08-07T05:22:26.641Z,102773.53
2022-08-07T05:24:59.703Z,102776.84
2022-08-07T05:28:03.183Z,102777.16
2022-08-07T05:30:21.118Z,102779.38
2022-08-07T05:33:03.378Z,102784.88
2022-08-07T05:35:42.150Z,102789.41
2022-08-07T05:38:12.764Z,102779.56
2022-08-07T05:41:12.443Z,102767.97
2022-08-07T05:44:08.245Z,102771.56
2022-08-07T05:46:37.364Z,102772.78
2022-08-07T05:49:11.641Z,102769.19
2022-08-07T05:51:42.669Z,102766.50
2022-08-07T05:54:30.982Z,102771.75
2022-08-07T05:57:02.560Z,102771.25
2022-08-07T05:59:55.834Z,102773.28
2022-08-07T06:02:30.710Z,102776.44
2022-08-07T06:05:07.026Z,102778.47
2022-08-07T06:08:13.677Z,102778.25
2022-08-07T06:10:25.769Z,102780.16
2022-08-07T06:12:54.590Z,102783.22
2022-08-07T06:15:38.535Z,102781.97
2022-08-07T06:18:15.624Z,102789.59
2022-08-07T06:20:50.816Z,102785.78
2022-08-07T06:24:37.130Z,102784.69
2022-08-07T06:26:27.909Z,102785.38
2022-08-07T06:29:01.256Z,102794.91
2022-08-07T06:31:46.703Z,102793.09
2022-08-07T06:34:24.923Z,102799.97
2022-08-07T06:36:58.128Z,102799.28
2022-08-07T06:40:17.881Z,102796.47
2022-08-07T06:42:34.897Z,102796.34
2022-08-07T06:45:05.510Z,102799.84
2022-08-07T06:47:57.106Z,102801.97
2022-08-07T06:50:30.417Z,102806.13
2022-08-07T06:53:00.110Z,102808.22
2022-08-07T06:55:48.019Z,102804.53
2022-08-07T06:58:27.621Z,102809.22
2022-08-07T07:00:58.949Z,102795.69
2022-08-07T07:03:49.396Z,102801.50
2022-08-07T07:06:26.370Z,102796.84
2022-08-07T07:08:54.886Z,102791.81
2022-08-07T07:12:08.643Z,102799.13
2022-08-07T07:14:23.786Z,102796.66
2022-08-07T07:16:58.793Z,102791.81
2022-08-07T07:19:56.404Z,102782.47
2022-08-07T07:22:35.765Z,102787.81
2022-08-07T07:26:30.392Z,102787.09
2022-08-07T07:28:42.550Z,102785.31
2022-08-07T07:31:05.812Z,102787.56
2022-08-07T07:33:37.449Z,102789.44
2022-08-07T07:36:13.441Z,102789.03
2022-08-07T07:38:47.492Z,102787.69
2022-08-07T07:41:18.549Z,102780.19
2022-08-07T07:44:14.143Z,102781.97
2022-08-07T07:46:54.451Z,102777.13
2022-08-07T07:50:32.445Z,102780.47
2022-08-07T07:52:18.244Z,102776.97
2022-08-07T07:54:51.244Z,102768.66
2022-08-07T07:57:53.316Z,102766.69
2022-08-07T08:00:29.949Z,102779.50
2022-08-07T08:03:08.281Z,102773.59
2022-08-07T08:05:54.749Z,102765.91
2022-08-07T08:08:34.346Z,102764.59
2022-08-07T08:11:16.392Z,102771.69
2022-08-07T08:13:54.294Z,102771.06
2022-08-07T08:16:35.068Z,102763.25
2022-08-07T08:19:17.449Z,102762.34
2022-08-07T08:22:16.151Z,102762.16
2022-08-07T08:25:24.691Z,102761.47
2022-08-07T08:28:01.610Z,102751.97
2022-08-07T08:30:34.550Z,102757.84
2022-08-07T08:33:10.573Z,102748.69
2022-08-07T08:35:50.762Z,102749.78
2022-08-07T08:38:29.498Z,102745.81
2022-08-07T08:41:10.025Z,102741.84
2022-08-07T08:43:58.773Z,102748.38
2022-08-07T08:46:38.414Z,102751.00
2022-08-07T08:49:19.604Z,102757.19
2022-08-07T08:52:23.105Z,102746.91
2022-08-07T08:55:07.993Z,102753.91
2022-08-07T08:57:45.309Z,102747.19
2022-08-07T09:00:16.727Z,102752.75
2022-08-07T09:02:57.682Z,102754.00
2022-08-07T09:05:44.601Z,102749.66
2022-08-07T09:08:37.828Z,102752.81
2022-08-07T09:11:24.324Z,102756.38
2022-08-07T09:14:14.229Z,102756.16
2022-08-07T09:16:58.749Z,102760.47
2022-08-07T09:19:52.985Z,102755.59
2022-08-07T09:24:31.834Z,102754.88
2022-08-07T09:25:43.498Z,102759.78
2022-08-07T09:30:01.511Z,102769.06
2022-08-07T09:31:38.436Z,102754.88
2022-08-07T09:34:21.491Z,102753.28
2022-08-07T09:37:01.080Z,102751.97
2022-08-07T09:39:55.290Z,102756.59
2022-08-07T09:42:42.219Z,102766.28
2022-08-07T09:47:27.511Z,102765.25
2022-08-07T09:48:29.952Z,102750.28
2022-08-07T09:52:09.786Z,102753.81
2022-08-07T09:54:21.038Z,102744.72
2022-08-07T09:57:46.835Z,102741.72
2022-08-07T10:00:18.788Z,102730.13
2022-08-07T10:04:04.791Z,102736.25
2022-08-07T10:06:59.676Z,102727.69
2022-08-07T10:10:03.552Z,102718.25
2022-08-07T10:12:56.109Z,102716.59
2022-08-07T10:15:47.902Z,102717.25
2022-08-07T10:18:53.738Z,102712.28
2022-08-07T10:22:12.261Z,102714.88
2022-08-07T10:24:50.545Z,102714.22
2022-08-07T10:27:45.907Z,102709.53
2022-08-07T10:30:19.783Z,102703.75
2022-08-07T10:34:05.103Z,102692.53
2022-08-07T10:36:30.652Z,102699.59
2022-08-07T10:39:13.600Z,102697.25
2022-08-07T10:42:01.630Z,102694.03
2022-08-07T10:44:45.338Z,102695.44
2022-08-07T10:47:50.596Z,102696.16
2022-08-07T10:50:25.814Z,102686.22
2022-08-07T10:53:21.700Z,102688.84
2022-08-07T10:56:02.226Z,102684.44
2022-08-07T10:58:59.424Z,102688.88
2022-08-07T11:01:51.427Z,102675.47
2022-08-07T11:05:01.085Z,102672.09
2022-08-07T11:07:58.526Z,102661.22
2022-08-07T11:10:41.832Z,102671.75
2022-08-07T11:14:43.941Z,102661.09
2022-08-07T11:16:16.255Z,102665.78
2022-08-07T11:18:55.304Z,102661.94
2022-08-07T11:21:40.758Z,102656.28
2022-08-07T11:24:21.429Z,102646.53
2022-08-07T11:27:00.470Z,102644.28
2022-08-07T11:29:43.030Z,102651.50
2022-08-07T11:32:25.914Z,102650.75
2022-08-07T11:34:59.949Z,102652.66
2022-08-07T11:38:12.832Z,102654.72
2022-08-07T11:40:57.771Z,102651.22
2022-08-07T11:43:54.906Z,102644.38
2022-08-07T11:46:49.669Z,102648.66
2022-08-07T11:50:32.225Z,102646.56
2022-08-07T11:53:23.987Z,102636.00
2022-08-07T11:56:26.964Z,102633.09
2022-08-07T12:00:08.852Z,102637.31
2022-08-07T12:02:29.936Z,102632.91
2022-08-07T12:05:15.337Z,102628.22
2022-08-07T12:08:06.337Z,102623.81
2022-08-07T12:10:46.194Z,102621.63
2022-08-07T12:13:35.515Z,102622.72
2022-08-07T12:16:12.881Z,102616.13
2022-08-07T12:19:14.695Z,102613.25
2022-08-07T12:22:37.987Z,102628.41
2022-08-07T12:26:03.448Z,102619.81
2022-08-07T12:28:31.082Z,102611.22
2022-08-07T12:31:05.685Z,102605.56
2022-08-07T12:33:56.604Z,102620.56
2022-08-07T12:36:33.423Z,102616.88
2022-08-07T12:39:41.151Z,102609.09
2022-08-07T12:41:54.880Z,102602.97
2022-08-07T12:44:26.777Z,102598.34
2022-08-07T12:47:14.040Z,102603.69
2022-08-07T12:50:34.201Z,102603.16
2022-08-07T12:52:53.094Z,102589.22
2022-08-07T12:55:41.092Z,102591.63
2022-08-07T12:58:21.188Z,102583.63
2022-08-07T13:01:08.998Z,102592.63
2022-08-07T13:04:05.797Z,102581.84
2022-08-07T13:07:03.963Z,102588.81
2022-08-07T13:10:39.199Z,102594.44
2022-08-07T13:13:50.324Z,102587.19
2022-08-07T13:16:30.897Z,102583.78
2022-08-07T13:19:18.390Z,102580.81
2022-08-07T13:22:19.919Z,102584.28
2022-08-07T13:25:00.038Z,102576.50
2022-08-07T13:28:11.205Z,102577.28
2022-08-07T13:30:40.579Z,102581.09
2022-08-07T13:34:31.025Z,102577.00
2022-08-07T13:36:25.707Z,102573.63
2022-08-07T13:39:12.669Z,102567.31
2022-08-07T13:41:55.977Z,102565.09
2022-08-07T13:44:43.734Z,102573.25
2022-08-07T13:47:27.843Z,102573.63
2022-08-07T13:50:33.762Z,102566.78
2022-08-07T13:53:06.556Z,102569.78
2022-08-07T13:55:54.329Z,102564.25
2022-08-07T13:58:56.597Z,102561.63
2022-08-07T14:01:28.532Z,102557.00
2022-08-07T14:04:11.275Z,102559.78
2022-08-07T14:06:46.819Z,102562.72
2022-08-07T14:10:17.490Z,102559.78
2022-08-07T14:12:29.930Z,102550.13
2022-08-07T14:15:10.431Z,102559.34
2022-08-07T14:18:27.597Z,102558.19
2022-08-07T14:20:41.647Z,102563.28
2022-08-07T14:23:58.975Z,102563.00
2022-08-07T14:26:29.981Z,102562.59
2022-08-07T14:30:06.729Z,102564.69
2022-08-07T14:32:00.209Z,102562.09
2022-08-07T14:34:32.692Z,102564.03
2022-08-07T14:37:03.181Z,102561.97
2022-08-07T14:40:16.080Z,102559.16
2022-08-07T14:42:32.386Z,102550.56
2022-08-07T14:45:21.917Z,102549.00
2022-08-07T14:47:58.731Z,102552.38
2022-08-07T14:50:37.517Z,102545.78
2022-08-07T14:53:08.812Z,102558.25
2022-08-07T14:55:56.286Z,102544.38
2022-08-07T14:58:34.816Z,102549.59
2022-08-07T15:01:22.364Z,102543.00
2022-08-07T15:03:53.483Z,102545.75
2022-08-07T15:06:26.468Z,102546.78
2022-08-07T15:08:56.158Z,102551.13
2022-08-07T15:11:54.034Z,102543.72
2022-08-07T15:14:30.596Z,102546.69
2022-08-07T15:17:16.716Z,102547.59
2022-08-07T15:20:34.162Z,102551.84
2022-08-07T15:22:53.701Z,102549.00
2022-08-07T15:25:36.991Z,102546.53
2022-08-07T15:28:32.859Z,102546.19
2022-08-07T15:31:05.650Z,102546.19
2022-08-07T15:39:16.970Z,102541.94
2022-08-07T15:42:45.155Z,102542.28
2022-08-07T15:44:54.135Z,102535.25
2022-08-07T15:48:00.998Z,102536.78
2022-08-07T15:53:13.061Z,102530.84
2022-08-07T15:56:02.540Z,102541.84
2022-08-07T15:58:44.969Z,102530.69
2022-08-07T16:01:38.609Z,102536.66
2022-08-07T16:04:15.336Z,102531.47
2022-08-07T16:06:54.443Z,102524.84
2022-08-07T16:09:41.046Z,102529.31
2022-08-07T16:12:28.852Z,102521.66
2022-08-07T16:15:07.941Z,102521.78
2022-08-07T16:18:04.046Z,102523.91
2022-08-07T16:20:55.209Z,102523.34
2022-08-07T16:24:00.156Z,102515.59
2022-08-07T16:26:59.339Z,102510.66
2022-08-07T16:30:09.675Z,102511.66
2022-08-07T16:32:55.031Z,102520.31
2022-08-07T16:35:51.884Z,102507.13
2022-08-07T16:39:00.897Z,102516.03
2022-08-07T16:42:02.659Z,102505.53
2022-08-07T16:45:14.750Z,102502.47
2022-08-07T16:48:58.502Z,102506.00
2022-08-07T16:52:11.409Z,102506.22
2022-08-07T16:55:11.533Z,102512.72
2022-08-07T16:58:02.984Z,102517.13
2022-08-07T17:00:45.205Z,102510.41
2022-08-07T17:03:58.379Z,102512.00
2022-08-07T17:06:45.351Z,102513.59
2022-08-07T17:10:06.384Z,102516.22
2022-08-07T17:12:36.828Z,102507.53
2022-08-07T17:15:43.889Z,102507.22
2022-08-07T17:18:29.186Z,102507.13
2022-08-07T17:21:02.807Z,102513.84
2022-08-07T17:24:00.400Z,102506.94
2022-08-07T17:26:49.848Z,102503.97
2022-08-07T17:30:14.915Z,102501.59
2022-08-07T17:32:30.809Z,102501.97
2022-08-07T17:35:49.962Z,102500.81
2022-08-07T17:38:32.029Z,102507.13
2022-08-07T17:42:01.735Z,102507.88
2022-08-07T17:44:33.957Z,102501.84
2022-08-07T17:47:17.133Z,102498.66
2022-08-07T17:50:09.556Z,102505.03
2022-08-07T17:52:53.375Z,102503.94
2022-08-07T17:56:00.504Z,102502.94
2022-08-07T17:58:32.741Z,102507.94
2022-08-07T18:01:21.198Z,102500.09
2022-08-07T18:04:16.707Z,102501.84
2022-08-07T18:07:19.050Z,102508.66
2022-08-07T18:10:06.231Z,102499.53
2022-08-07T18:13:11.356Z,102504.03
2022-08-07T18:16:06.886Z,102508.09
2022-08-07T18:21:02.299Z,102511.66
2022-08-07T18:22:02.679Z,102512.72
2022-08-07T18:24:36.905Z,102503.72
2022-08-07T18:27:39.216Z,102507.91
2022-08-07T18:30:32.563Z,102514.34
2022-08-07T18:33:58.264Z,102522.09
2022-08-07T18:36:53.717Z,102512.47
2022-08-07T18:40:09.006Z,102518.47
2022-08-07T18:43:15.099Z,102528.00
2022-08-07T18:46:21.655Z,102526.28
2022-08-07T18:50:32.779Z,102521.81
2022-08-07T18:52:52.969Z,102527.72
2022-08-07T18:56:00.210Z,102528.63
2022-08-07T18:59:47.981Z,102526.63
2022-08-07T19:02:18.365Z,102536.28
2022-08-07T19:05:15.394Z,102544.00
2022-08-07T19:07:57.282Z,102543.28
2022-08-07T19:10:51.976Z,102544.56
2022-08-07T19:13:27.461Z,102543.06
2022-08-07T19:17:00.385Z,102542.34
2022-08-07T19:19:04.170Z,102535.69
2022-08-07T19:21:56.967Z,102549.13
2022-08-07T19:24:44.426Z,102552.81
2022-08-07T19:30:54.611Z,102558.81
2022-08-07T19:31:00.064Z,102558.25
2022-08-07T19:33:13.371Z,102563.06
2022-08-07T19:35:52.850Z,102568.63
2022-08-07T19:38:22.689Z,102569.19
2022-08-07T19:40:53.320Z,102570.19
2022-08-07T19:43:48.697Z,102575.59
2022-08-07T19:46:19.118Z,102570.13
2022-08-07T19:48:54.016Z,102580.91
2022-08-07T19:51:50.994Z,102576.56
2022-08-07T19:54:32.757Z,102586.38
2022-08-07T19:58:01.398Z,102593.31
2022-08-07T20:00:03.058Z,102576.47
2022-08-07T20:02:51.685Z,102584.00
2022-08-07T20:05:28.685Z,102590.00
2022-08-07T20:08:02.102Z,102589.47
2022-08-07T20:10:55.494Z,102593.75
2022-08-07T20:13:34.017Z,102591.78
2022-08-07T20:16:06.758Z,102584.78
2022-08-07T20:18:47.054Z,102594.47
2022-08-07T20:21:22.570Z,102594.16
2022-08-07T20:24:00.335Z,102590.69
2022-08-07T20:26:45.165Z,102590.41
2022-08-07T20:29:48.738Z,102587.44
2022-08-07T20:32:11.548Z,102591.03
2022-08-07T20:34:55.221Z,102590.06
2022-08-07T20:37:55.657Z,102594.66
2022-08-07T20:40:32.062Z,102595.03
2022-08-07T20:43:14.874Z,102592.91
2022-08-07T20:46:25.922Z,102589.88
2022-08-07T20:48:58.003Z,102593.53
2022-08-07T20:51:40.446Z,102595.53
2022-08-07T20:54:29.540Z,102587.81
2022-08-07T20:57:08.338Z,102592.78
2022-08-07T21:00:07.668Z,102593.66
2022-08-07T21:02:53.845Z,102595.94
2022-08-07T21:05:50.826Z,102596.25
2022-08-07T21:08:37.051Z,102607.75
2022-08-07T21:11:14.217Z,102593.91
2022-08-07T21:14:16.296Z,102600.75
2022-08-07T21:16:56.559Z,102602.75
2022-08-07T21:19:51.876Z,102601.53
2022-08-07T21:22:28.472Z,102600.22
2022-08-07T21:25:13.056Z,102606.00
2022-08-07T21:28:08.510Z,102606.44
2022-08-07T21:30:52.769Z,102598.91
2022-08-07T21:33:38.296Z,102608.09
2022-08-07T21:36:32.090Z,102603.69
2022-08-07T21:39:46.950Z,102605.81
2022-08-07T21:46:08.365Z,102601.78
2022-08-07T21:48:28.990Z,102602.91
2022-08-07T21:51:19.902Z,102605.03
2022-08-07T21:54:01.220Z,102603.56
2022-08-07T21:56:48.310Z,102596.66
2022-08-07T22:00:03.581Z,102603.31
2022-08-07T22:02:38.352Z,102607.03
2022-08-07T22:05:43.809Z,102611.50
2022-08-07T22:08:03.028Z,102610.53
2022-08-07T22:10:35.395Z,102608.53
2022-08-07T22:13:09.222Z,102609.31
2022-08-07T22:16:39.514Z,102615.44
2022-08-07T22:18:43.335Z,102610.19
2022-08-07T22:21:20.511Z,102617.19
2022-08-07T22:23:57.623Z,102620.31
2022-08-07T22:26:40.014Z,102632.59
2022-08-07T22:29:38.114Z,102617.06
2022-08-07T22:32:33.511Z,102629.06
2022-08-07T22:35:05.334Z,102628.41
2022-08-07T22:38:03.118Z,102628.22
2022-08-07T22:40:49.468Z,102624.72
2022-08-07T22:43:23.457Z,102627.56
2022-08-07T22:47:02.113Z,102631.38
2022-08-07T22:49:42.823Z,102627.13
2022-08-07T22:52:51.949Z,102632.38
2022-08-07T22:55:49.134Z,102634.22
2022-08-07T22:59:04.999Z,102636.41
2022-08-07T23:02:13.594Z,102632.06
2022-08-07T23:06:07.371Z,102638.06
2022-08-07T23:08:00.854Z,102635.84
2022-08-07T23:10:48.407Z,102635.34
2022-08-07T23:14:15.015Z,102623.03
2022-08-07T23:17:04.107Z,102634.88
2022-08-07T23:20:07.600Z,102631.72
2022-08-07T23:22:56.708Z,102639.34
2022-08-07T23:25:42.807Z,102632.41
2022-08-07T23:28:36.165Z,102640.09
2022-08-07T23:32:50.264Z,102643.28
2022-08-07T23:34:50.760Z,102641.84
2022-08-07T23:38:01.330Z,102640.09
2022-08-07T23:40:43.182Z,102643.69
2022-08-07T23:44:01.820Z,102638.91
2022-08-07T23:46:53.487Z,102639.25
2022-08-07T23:49:59.459Z,102644.03
2022-08-07T23:53:16.847Z,102642.28
2022-08-07T23:55:52.052Z,102641.28
2022-08-07T23:58:37.435Z,102647.41
